createdAt,value
2018-06-16T00:00:08.625Z,17.46
2018-06-16T00:01:08.598Z,17.42
2018-06-16T00:02:08.579Z,17.42
2018-06-16T00:03:08.554Z,17.40
2018-06-16T00:04:08.527Z,17.42
2018-06-16T00:05:08.504Z,17.40
2018-06-16T00:06:08.480Z,17.27
2018-06-16T00:07:08.463Z,17.35
2018-06-16T00:08:08.431Z,17.32
2018-06-16T00:09:08.410Z,17.18
2018-06-16T00:10:08.385Z,17.27
2018-06-16T00:11:08.364Z,17.18
2018-06-16T00:12:08.339Z,17.15
2018-06-16T00:13:08.314Z,17.14
2018-06-16T00:14:08.292Z,17.12
2018-06-16T00:15:08.272Z,17.14
2018-06-16T00:16:08.245Z,17.09
2018-06-16T00:17:08.218Z,17.15
2018-06-16T00:18:08.196Z,16.98
2018-06-16T00:19:08.172Z,17.05
2018-06-16T00:20:08.148Z,17.00
2018-06-16T00:21:08.122Z,16.96
2018-06-16T00:22:08.100Z,16.98
2018-06-16T00:23:08.076Z,16.95
2018-06-16T00:24:08.053Z,16.82
2018-06-16T00:25:08.028Z,16.90
2018-06-16T00:26:08.009Z,16.88
2018-06-16T00:27:07.981Z,16.87
2018-06-16T00:28:07.957Z,16.90
2018-06-16T00:29:07.932Z,16.87
2018-06-16T00:30:07.909Z,16.84
2018-06-16T00:31:07.888Z,16.84
2018-06-16T00:32:08.063Z,16.72
2018-06-16T00:33:07.838Z,16.85
2018-06-16T00:34:07.813Z,16.80
2018-06-16T00:35:07.790Z,16.81
2018-06-16T00:36:07.764Z,16.72
2018-06-16T00:37:07.740Z,16.73
2018-06-16T00:38:07.717Z,16.75
2018-06-16T00:39:07.693Z,16.80
2018-06-16T00:40:07.673Z,16.70
2018-06-16T00:41:07.645Z,16.72
2018-06-16T00:42:07.621Z,16.75
2018-06-16T00:43:07.600Z,16.78
2018-06-16T00:44:07.577Z,16.81
2018-06-16T00:45:07.548Z,16.81
2018-06-16T00:46:07.526Z,16.84
2018-06-16T00:47:07.502Z,16.90
2018-06-16T00:48:07.481Z,16.72
2018-06-16T00:49:07.453Z,16.73
2018-06-16T00:50:07.429Z,16.85
2018-06-16T00:51:07.405Z,16.72
2018-06-16T00:52:07.383Z,16.77
2018-06-16T00:53:07.359Z,16.75
2018-06-16T00:54:07.333Z,16.78
2018-06-16T00:55:07.314Z,16.81
2018-06-16T00:56:07.286Z,16.77
2018-06-16T00:57:07.261Z,16.73
2018-06-16T00:58:07.237Z,16.73
2018-06-16T00:59:07.213Z,16.72
2018-06-16T01:00:07.189Z,16.72
2018-06-16T01:01:07.169Z,16.88
2018-06-16T01:02:07.141Z,16.73
2018-06-16T01:03:07.117Z,16.75
2018-06-16T01:04:07.093Z,16.87
2018-06-16T01:05:07.068Z,16.82
2018-06-16T01:06:07.044Z,16.90
2018-06-16T01:07:07.022Z,16.81
2018-06-16T01:08:06.997Z,16.73
2018-06-16T01:09:06.972Z,16.75
2018-06-16T01:10:06.948Z,16.77
2018-06-16T01:11:06.928Z,16.75
2018-06-16T01:12:06.900Z,16.72
2018-06-16T01:13:06.881Z,16.72
2018-06-16T01:14:06.853Z,16.72
2018-06-16T01:15:06.828Z,16.90
2018-06-16T01:16:06.806Z,16.91
2018-06-16T01:17:06.779Z,16.90
2018-06-16T01:18:06.761Z,16.85
2018-06-16T01:19:06.732Z,16.81
2018-06-16T01:20:06.709Z,16.91
2018-06-16T01:21:06.684Z,16.85
2018-06-16T01:22:06.659Z,16.88
2018-06-16T01:23:06.635Z,16.82
2018-06-16T01:24:06.616Z,16.91
2018-06-16T01:25:06.593Z,16.92
2018-06-16T01:26:06.563Z,16.92
2018-06-16T01:27:06.540Z,16.99
2018-06-16T01:28:06.517Z,16.90
2018-06-16T01:29:06.490Z,16.84
2018-06-16T01:30:06.467Z,16.87
2018-06-16T01:31:06.442Z,16.82
2018-06-16T01:32:06.419Z,16.85
2018-06-16T01:33:06.394Z,16.81
2018-06-16T01:34:06.377Z,16.96
2018-06-16T01:35:06.356Z,16.85
2018-06-16T01:36:06.327Z,17.00
2018-06-16T01:37:06.300Z,16.95
2018-06-16T01:38:06.274Z,16.95
2018-06-16T01:39:06.250Z,16.98
2018-06-16T01:40:06.248Z,17.00
2018-06-16T01:41:06.204Z,16.99
2018-06-16T01:42:06.177Z,17.03
2018-06-16T01:43:06.154Z,16.99
2018-06-16T01:44:06.129Z,16.92
2018-06-16T01:45:06.107Z,16.85
2018-06-16T01:46:06.082Z,16.95
2018-06-16T01:47:06.057Z,16.99
2018-06-16T01:48:06.035Z,17.03
2018-06-16T01:49:06.010Z,17.12
2018-06-16T01:50:05.990Z,17.05
2018-06-16T01:51:05.963Z,16.90
2018-06-16T01:52:05.944Z,16.87
2018-06-16T01:53:05.914Z,16.85
2018-06-16T01:54:05.895Z,16.92
2018-06-16T01:55:05.866Z,16.82
2018-06-16T01:56:05.842Z,16.87
2018-06-16T01:57:05.822Z,16.81
2018-06-16T01:58:05.792Z,16.85
2018-06-16T01:59:05.769Z,16.67
2018-06-16T02:00:05.746Z,16.78
2018-06-16T02:01:05.721Z,16.72
2018-06-16T02:02:05.697Z,16.78
2018-06-16T02:03:05.674Z,16.84
2018-06-16T02:04:05.649Z,16.90
2018-06-16T02:05:05.625Z,16.80
2018-06-16T02:06:05.606Z,16.87
2018-06-16T02:07:05.577Z,16.85
2018-06-16T02:08:05.553Z,16.90
2018-06-16T02:09:05.527Z,16.88
2018-06-16T02:10:05.504Z,16.87
2018-06-16T02:11:05.479Z,16.87
2018-06-16T02:12:05.458Z,16.90
2018-06-16T02:13:05.432Z,16.84
2018-06-16T02:14:05.408Z,16.87
2018-06-16T02:15:05.384Z,16.87
2018-06-16T02:16:05.364Z,16.95
2018-06-16T02:17:05.340Z,16.82
2018-06-16T02:18:05.313Z,16.84
2018-06-16T02:19:05.287Z,16.85
2018-06-16T02:20:05.264Z,16.84
2018-06-16T02:21:05.240Z,16.88
2018-06-16T02:22:05.215Z,16.88
2018-06-16T02:23:05.192Z,16.92
2018-06-16T02:24:05.168Z,16.85
2018-06-16T02:25:05.146Z,16.82
2018-06-16T02:26:05.120Z,16.87
2018-06-16T02:27:05.095Z,16.81
2018-06-16T02:28:05.073Z,16.88
2018-06-16T02:29:05.046Z,16.72
2018-06-16T02:30:05.028Z,16.73
2018-06-16T02:31:04.999Z,16.72
2018-06-16T02:32:04.978Z,16.72
2018-06-16T02:33:04.950Z,16.72
2018-06-16T02:34:04.938Z,16.77
2018-06-16T02:35:04.908Z,16.75
2018-06-16T02:36:04.882Z,16.72
2018-06-16T02:37:04.858Z,16.67
2018-06-16T02:38:04.831Z,16.60
2018-06-16T02:39:04.805Z,16.66
2018-06-16T02:40:04.785Z,16.60
2018-06-16T02:41:04.757Z,16.72
2018-06-16T02:42:04.733Z,16.67
2018-06-16T02:43:04.713Z,16.65
2018-06-16T02:44:04.686Z,16.60
2018-06-16T02:45:04.664Z,16.60
2018-06-16T02:46:04.640Z,16.65
2018-06-16T02:47:04.614Z,16.65
2018-06-16T02:48:04.589Z,16.59
2018-06-16T02:49:04.564Z,16.69
2018-06-16T02:50:04.542Z,16.60
2018-06-16T02:51:04.517Z,16.63
2018-06-16T02:52:04.496Z,16.62
2018-06-16T02:53:04.468Z,16.65
2018-06-16T02:54:04.444Z,16.63
2018-06-16T02:55:04.423Z,16.65
2018-06-16T02:56:04.397Z,16.66
2018-06-16T02:57:04.371Z,16.65
2018-06-16T02:58:04.350Z,16.60
2018-06-16T02:59:04.323Z,16.60
2018-06-16T03:00:04.301Z,16.52
2018-06-16T03:01:04.275Z,16.55
2018-06-16T03:02:04.250Z,16.45
2018-06-16T03:03:04.227Z,16.59
2018-06-16T03:04:04.204Z,16.57
2018-06-16T03:05:04.178Z,16.54
2018-06-16T03:06:04.154Z,16.42
2018-06-16T03:07:04.131Z,16.37
2018-06-16T03:08:04.105Z,16.41
2018-06-16T03:09:04.081Z,16.34
2018-06-16T03:10:04.058Z,16.36
2018-06-16T03:11:04.036Z,16.33
2018-06-16T03:12:04.009Z,16.30
2018-06-16T03:13:03.984Z,16.29
2018-06-16T03:14:03.961Z,16.36
2018-06-16T03:15:03.940Z,16.33
2018-06-16T03:16:03.913Z,16.33
2018-06-16T03:17:03.888Z,16.32
2018-06-16T03:18:03.863Z,16.41
2018-06-16T03:19:03.843Z,16.25
2018-06-16T03:20:03.822Z,16.16
2018-06-16T03:21:03.794Z,16.26
2018-06-16T03:22:03.769Z,16.30
2018-06-16T03:23:03.744Z,16.27
2018-06-16T03:24:03.719Z,16.23
2018-06-16T03:25:03.694Z,16.23
2018-06-16T03:26:03.670Z,16.18
2018-06-16T03:27:03.647Z,16.17
2018-06-16T03:28:03.625Z,16.22
2018-06-16T03:29:03.597Z,16.18
2018-06-16T03:30:03.576Z,16.16
2018-06-16T03:31:03.548Z,16.14
2018-06-16T03:32:03.525Z,16.13
2018-06-16T03:33:03.502Z,16.13
2018-06-16T03:34:03.476Z,16.11
2018-06-16T03:35:03.466Z,16.11
2018-06-16T03:36:03.429Z,16.18
2018-06-16T03:37:03.402Z,16.13
2018-06-16T03:38:03.379Z,16.13
2018-06-16T03:39:03.359Z,16.13
2018-06-16T03:40:03.333Z,16.23
2018-06-16T03:41:03.307Z,16.16
2018-06-16T03:42:03.283Z,16.14
2018-06-16T03:43:03.259Z,16.16
2018-06-16T03:44:03.235Z,16.14
2018-06-16T03:45:03.213Z,16.14
2018-06-16T03:46:03.186Z,16.08
2018-06-16T03:47:03.163Z,16.16
2018-06-16T03:48:03.143Z,16.18
2018-06-16T03:49:03.113Z,16.17
2018-06-16T03:50:03.088Z,16.27
2018-06-16T03:51:03.070Z,16.25
2018-06-16T03:52:03.042Z,16.22
2018-06-16T03:53:03.016Z,16.23
2018-06-16T03:54:02.993Z,16.25
2018-06-16T03:55:02.969Z,16.23
2018-06-16T03:56:02.948Z,16.25
2018-06-16T03:57:02.921Z,16.32
2018-06-16T03:58:02.903Z,16.18
2018-06-16T03:59:02.873Z,16.25
2018-06-16T04:00:02.856Z,16.18
2018-06-16T04:01:02.827Z,16.25
2018-06-16T04:02:02.802Z,16.22
2018-06-16T04:03:02.780Z,16.27
2018-06-16T04:04:02.754Z,16.30
2018-06-16T04:05:02.733Z,16.26
2018-06-16T04:06:02.705Z,16.29
2018-06-16T04:07:02.682Z,16.32
2018-06-16T04:08:02.658Z,16.40
2018-06-16T04:09:02.632Z,16.34
2018-06-16T04:10:02.610Z,16.42
2018-06-16T04:11:02.586Z,16.41
2018-06-16T04:12:02.564Z,16.45
2018-06-16T04:13:02.538Z,16.36
2018-06-16T04:14:02.517Z,16.47
2018-06-16T04:15:02.496Z,16.47
2018-06-16T04:16:02.466Z,16.36
2018-06-16T04:17:02.442Z,16.47
2018-06-16T04:18:02.419Z,16.50
2018-06-16T04:19:02.393Z,16.36
2018-06-16T04:20:02.376Z,16.51
2018-06-16T04:21:02.352Z,16.44
2018-06-16T04:22:02.328Z,16.41
2018-06-16T04:23:02.302Z,16.47
2018-06-16T04:24:02.280Z,16.50
2018-06-16T04:25:02.252Z,16.57
2018-06-16T04:26:02.233Z,16.66
2018-06-16T04:27:02.211Z,16.80
2018-06-16T04:28:02.188Z,16.88
2018-06-16T04:29:02.157Z,16.90
2018-06-16T04:30:02.133Z,16.95
2018-06-16T04:31:02.112Z,16.95
2018-06-16T04:32:02.094Z,17.06
2018-06-16T04:33:02.073Z,17.18
2018-06-16T04:34:02.041Z,17.21
2018-06-16T04:35:02.019Z,17.03
2018-06-16T04:36:01.995Z,17.10
2018-06-16T04:37:01.972Z,17.10
2018-06-16T04:38:01.950Z,17.18
2018-06-16T04:39:01.926Z,17.33
2018-06-16T04:40:01.920Z,17.38
2018-06-16T04:41:01.881Z,17.57
2018-06-16T04:42:01.857Z,17.63
2018-06-16T04:43:01.835Z,17.80
2018-06-16T04:44:01.812Z,17.76
2018-06-16T04:45:01.789Z,17.80
2018-06-16T04:46:01.768Z,17.86
2018-06-16T04:47:01.947Z,17.84
2018-06-16T04:48:01.925Z,17.89
2018-06-16T04:49:01.903Z,17.98
2018-06-16T04:50:01.681Z,17.73
2018-06-16T04:51:01.665Z,17.89
2018-06-16T04:52:01.634Z,17.96
2018-06-16T04:53:01.611Z,17.91
2018-06-16T04:54:04.413Z,17.94
2018-06-16T04:55:01.566Z,17.84
2018-06-16T04:56:01.549Z,17.83
2018-06-16T04:57:01.578Z,17.70
2018-06-16T04:58:01.501Z,17.83
2018-06-16T04:59:01.480Z,17.54
2018-06-16T05:00:01.458Z,17.47
2018-06-16T05:01:01.439Z,17.47
2018-06-16T05:02:01.413Z,17.46
2018-06-16T05:03:01.394Z,17.42
2018-06-16T05:04:01.375Z,17.51
2018-06-16T05:05:01.346Z,17.51
2018-06-16T05:06:01.325Z,17.47
2018-06-16T05:07:01.303Z,17.65
2018-06-16T05:08:01.280Z,17.74
2018-06-16T05:09:01.260Z,17.63
2018-06-16T05:10:01.237Z,17.70
2018-06-16T05:11:01.214Z,17.66
2018-06-16T05:12:01.195Z,17.71
2018-06-16T05:13:01.170Z,17.84
2018-06-16T05:14:01.148Z,17.83
2018-06-16T05:15:01.129Z,17.83
2018-06-16T05:16:01.105Z,17.87
2018-06-16T05:17:01.187Z,17.87
2018-06-16T05:18:01.061Z,17.96
2018-06-16T05:19:01.037Z,18.34
2018-06-16T05:20:01.022Z,18.35
2018-06-16T05:21:00.993Z,18.41
2018-06-16T05:22:00.973Z,18.38
2018-06-16T05:23:00.950Z,18.50
2018-06-16T05:24:00.926Z,18.83
2018-06-16T05:25:00.905Z,18.94
2018-06-16T05:26:00.884Z,19.23
2018-06-16T05:27:00.865Z,19.28
2018-06-16T05:28:00.841Z,19.17
2018-06-16T05:29:00.818Z,19.17
2018-06-16T05:30:00.799Z,18.90
2018-06-16T05:31:00.777Z,18.82
2018-06-16T05:32:00.758Z,18.56
2018-06-16T05:33:00.943Z,18.56
2018-06-16T05:34:00.712Z,18.47
2018-06-16T05:35:00.689Z,18.51
2018-06-16T05:36:00.670Z,18.34
2018-06-16T05:37:00.649Z,18.29
2018-06-16T05:38:00.628Z,18.26
2018-06-16T05:39:00.607Z,18.51
2018-06-16T05:40:00.586Z,18.64
2018-06-16T05:41:00.563Z,18.53
2018-06-16T05:42:00.542Z,18.64
2018-06-16T05:43:00.522Z,18.66
2018-06-16T05:44:00.501Z,18.68
2018-06-16T05:45:00.487Z,18.82
2018-06-16T05:46:00.464Z,18.79
2018-06-16T05:47:00.437Z,18.84
2018-06-16T05:48:00.424Z,18.64
2018-06-16T05:49:00.394Z,18.56
2018-06-16T05:50:00.376Z,18.68
2018-06-16T05:51:00.353Z,18.74
2018-06-16T05:52:00.332Z,18.71
2018-06-16T05:53:00.309Z,18.69
2018-06-16T05:54:00.302Z,18.91
2018-06-16T05:55:00.268Z,18.69
2018-06-16T05:56:00.247Z,18.75
2018-06-16T05:57:00.224Z,18.62
2018-06-16T05:58:00.204Z,18.68
2018-06-16T05:59:00.184Z,18.75
2018-06-16T06:00:00.164Z,18.62
2018-06-16T06:01:00.145Z,18.69
2018-06-16T06:02:00.125Z,18.64
2018-06-16T06:03:00.099Z,18.83
2018-06-16T06:04:00.078Z,18.89
2018-06-16T06:05:00.058Z,18.86
2018-06-16T06:06:00.037Z,18.74
2018-06-16T06:07:00.015Z,18.82
2018-06-16T06:07:59.994Z,18.97
2018-06-16T06:08:59.972Z,19.10
2018-06-16T06:09:59.952Z,19.17
2018-06-16T06:10:59.931Z,19.32
2018-06-16T06:11:59.909Z,19.40
2018-06-16T06:12:59.911Z,19.61
2018-06-16T06:13:59.868Z,19.58
2018-06-16T06:14:59.846Z,19.64
2018-06-16T06:15:59.828Z,19.61
2018-06-16T06:16:59.809Z,19.55
2018-06-16T06:17:59.783Z,19.65
2018-06-16T06:18:59.767Z,19.61
2018-06-16T06:19:59.746Z,19.70
2018-06-16T06:20:59.722Z,19.90
2018-06-16T06:21:59.706Z,19.78
2018-06-16T06:22:59.684Z,19.72
2018-06-16T06:23:59.662Z,19.83
2018-06-16T06:24:59.644Z,19.79
2018-06-16T06:25:59.622Z,19.76
2018-06-16T06:26:59.601Z,19.75
2018-06-16T06:27:59.579Z,19.71
2018-06-16T06:28:59.558Z,19.85
2018-06-16T06:29:59.540Z,19.95
2018-06-16T06:30:59.519Z,19.97
2018-06-16T06:31:59.542Z,19.98
2018-06-16T06:32:59.486Z,20.07
2018-06-16T06:33:59.458Z,20.01
2018-06-16T06:34:59.439Z,20.23
2018-06-16T06:35:59.419Z,20.48
2018-06-16T06:36:59.396Z,20.23
2018-06-16T06:37:59.378Z,20.46
2018-06-16T06:38:59.360Z,20.68
2018-06-16T06:39:59.343Z,20.72
2018-06-16T06:40:59.320Z,20.53
2018-06-16T06:41:59.299Z,20.48
2018-06-16T06:42:59.278Z,20.54
2018-06-16T06:43:59.268Z,20.58
2018-06-16T06:44:59.240Z,20.75
2018-06-16T06:45:59.219Z,20.61
2018-06-16T06:46:59.204Z,20.68
2018-06-16T06:47:59.184Z,20.63
2018-06-16T06:48:59.160Z,20.53
2018-06-16T06:49:59.142Z,20.51
2018-06-16T06:50:59.124Z,20.72
2018-06-16T06:51:59.103Z,20.68
2018-06-16T06:52:59.083Z,20.79
2018-06-16T06:53:59.064Z,20.78
2018-06-16T06:54:59.045Z,20.82
2018-06-16T06:55:59.031Z,20.83
2018-06-16T06:56:59.007Z,20.82
2018-06-16T06:57:59.051Z,20.83
2018-06-16T06:58:58.967Z,20.85
2018-06-16T06:59:58.948Z,21.13
2018-06-16T07:00:58.929Z,21.06
2018-06-16T07:01:58.908Z,21.08
2018-06-16T07:02:58.890Z,21.19
2018-06-16T07:03:58.896Z,21.05
2018-06-16T07:04:58.851Z,21.05
2018-06-16T07:05:58.841Z,21.03
2018-06-16T07:06:58.815Z,21.11
2018-06-16T07:07:58.796Z,21.03
2018-06-16T07:08:58.776Z,21.12
2018-06-16T07:09:58.760Z,21.45
2018-06-16T07:10:58.762Z,21.63
2018-06-16T07:11:58.927Z,21.74
2018-06-16T07:12:58.902Z,22.09
2018-06-16T07:13:58.886Z,22.44
2018-06-16T07:14:58.664Z,22.36
2018-06-16T07:15:58.646Z,22.48
2018-06-16T07:16:58.828Z,22.51
2018-06-16T07:17:58.808Z,22.49
2018-06-16T07:18:58.792Z,22.52
2018-06-16T07:19:58.773Z,22.78
2018-06-16T07:20:58.757Z,22.72
2018-06-16T07:21:58.737Z,22.59
2018-06-16T07:22:58.719Z,22.66
2018-06-16T07:23:58.500Z,22.74
2018-06-16T07:24:58.684Z,22.64
2018-06-16T07:25:58.464Z,22.97
2018-06-16T07:26:58.651Z,22.94
2018-06-16T07:27:58.635Z,23.22
2018-06-16T07:28:58.617Z,23.93
2018-06-16T07:29:58.398Z,24.06
2018-06-16T07:30:58.377Z,24.02
2018-06-16T07:31:58.360Z,23.77
2018-06-16T07:32:58.346Z,23.59
2018-06-16T07:33:58.329Z,23.94
2018-06-16T07:34:58.317Z,23.96
2018-06-16T07:35:58.293Z,23.64
2018-06-16T07:36:58.276Z,23.93
2018-06-16T07:37:58.259Z,23.89
2018-06-16T07:38:58.336Z,23.90
2018-06-16T07:39:58.231Z,23.68
2018-06-16T07:40:58.211Z,23.38
2018-06-16T07:41:58.195Z,23.86
2018-06-16T07:42:58.177Z,24.02
2018-06-16T07:43:58.365Z,23.93
2018-06-16T07:44:58.346Z,24.51
2018-06-16T07:45:58.533Z,24.21
2018-06-16T07:46:58.518Z,24.52
2018-06-16T07:47:58.305Z,24.63
2018-06-16T07:48:58.163Z,24.97
2018-06-16T07:49:58.065Z,24.63
2018-06-16T07:50:58.250Z,24.79
2018-06-16T07:51:58.644Z,24.77
2018-06-16T07:52:58.219Z,24.52
2018-06-16T07:53:58.004Z,23.93
2018-06-16T07:54:57.986Z,24.11
2018-06-16T07:55:57.971Z,23.74
2018-06-16T07:56:57.953Z,23.67
2018-06-16T07:57:57.941Z,23.54
2018-06-16T07:58:57.928Z,23.49
2018-06-16T07:59:57.908Z,23.41
2018-06-16T08:00:57.900Z,23.69
2018-06-16T08:01:57.876Z,23.31
2018-06-16T08:02:57.861Z,23.15
2018-06-16T08:03:57.848Z,23.37
2018-06-16T08:04:57.828Z,23.45
2018-06-16T08:05:57.813Z,23.74
2018-06-16T08:06:57.798Z,23.44
2018-06-16T08:07:57.783Z,23.29
2018-06-16T08:08:57.774Z,23.18
2018-06-16T08:09:57.749Z,23.81
2018-06-16T08:10:57.734Z,23.79
2018-06-16T08:11:57.716Z,24.04
2018-06-16T08:12:57.700Z,24.12
2018-06-16T08:13:57.684Z,24.29
2018-06-16T08:14:57.669Z,24.49
2018-06-16T08:15:57.652Z,24.75
2018-06-16T08:16:57.636Z,25.09
2018-06-16T08:17:57.673Z,24.92
2018-06-16T08:18:57.605Z,24.56
2018-06-16T08:19:57.589Z,24.49
2018-06-16T08:20:57.572Z,24.15
2018-06-16T08:21:57.564Z,24.08
2018-06-16T08:22:57.548Z,24.05
2018-06-16T08:23:57.527Z,24.36
2018-06-16T08:24:57.516Z,24.26
2018-06-16T08:25:57.495Z,24.51
2018-06-16T08:26:57.481Z,24.52
2018-06-16T08:27:57.465Z,24.98
2018-06-16T08:28:57.449Z,25.29
2018-06-16T08:29:57.436Z,25.90
2018-06-16T08:30:57.418Z,25.72
2018-06-16T08:31:57.404Z,25.44
2018-06-16T08:32:57.388Z,25.44
2018-06-16T08:33:57.372Z,25.57
2018-06-16T08:34:57.360Z,25.22
2018-06-16T08:35:57.557Z,25.04
2018-06-16T08:36:57.329Z,24.98
2018-06-16T08:37:57.317Z,25.12
2018-06-16T08:38:57.501Z,25.44
2018-06-16T08:39:57.285Z,25.39
2018-06-16T08:40:57.270Z,25.44
2018-06-16T08:41:57.255Z,25.36
2018-06-16T08:42:57.241Z,25.07
2018-06-16T08:43:57.225Z,24.94
2018-06-16T08:44:57.214Z,24.89
2018-06-16T08:45:57.196Z,24.83
2018-06-16T08:46:57.184Z,24.61
2018-06-16T08:47:57.166Z,24.53
2018-06-16T08:48:57.151Z,24.64
2018-06-16T08:49:57.136Z,24.70
2018-06-16T08:50:57.121Z,24.59
2018-06-16T08:51:57.106Z,24.53
2018-06-16T08:52:57.090Z,24.52
2018-06-16T08:53:57.074Z,24.21
2018-06-16T08:54:57.062Z,24.18
2018-06-16T08:55:57.044Z,24.39
2018-06-16T08:56:57.229Z,24.34
2018-06-16T08:57:57.014Z,24.37
2018-06-16T08:58:56.996Z,24.37
2018-06-16T08:59:56.987Z,24.41
2018-06-16T09:00:56.965Z,24.70
2018-06-16T09:01:56.946Z,24.64
2018-06-16T09:02:56.932Z,24.52
2018-06-16T09:03:56.918Z,24.51
2018-06-16T09:04:56.898Z,24.74
2018-06-16T09:05:56.883Z,24.89
2018-06-16T09:06:56.867Z,24.93
2018-06-16T09:07:56.851Z,24.82
2018-06-16T09:08:56.834Z,24.55
2018-06-16T09:09:56.817Z,24.64
2018-06-16T09:11:39.166Z,24.31
2018-06-16T09:12:38.944Z,24.33
2018-06-16T09:13:38.926Z,23.99
2018-06-16T09:14:39.416Z,23.97
2018-06-16T09:15:39.095Z,23.92
2018-06-16T09:16:39.077Z,23.81
2018-06-16T09:17:39.062Z,23.57
2018-06-16T09:20:03.361Z,23.31
2018-06-16T09:21:03.342Z,23.16
2018-06-16T09:22:03.122Z,23.29
2018-06-16T09:23:03.308Z,23.37
2018-06-16T09:24:05.911Z,23.18
2018-06-16T09:25:03.276Z,23.12
2018-06-16T09:26:03.055Z,23.00
2018-06-16T09:27:03.236Z,22.94
2018-06-16T09:28:03.292Z,22.94
2018-06-16T09:29:02.997Z,22.97
2018-06-16T09:30:03.186Z,22.93
2018-06-16T09:31:45.329Z,23.06
2018-06-16T09:32:45.101Z,23.23
2018-06-16T09:33:45.081Z,23.34
2018-06-16T09:34:45.263Z,23.34
2018-06-16T09:35:45.044Z,23.47
2018-06-16T09:36:45.050Z,23.56
2018-06-16T09:37:45.010Z,23.60
2018-06-16T09:38:44.991Z,23.59
2018-06-16T09:39:44.971Z,23.74
2018-06-16T09:40:44.957Z,23.69
2018-06-16T09:41:44.936Z,23.89
2018-06-16T09:42:44.912Z,23.92
2018-06-16T09:43:44.897Z,24.08
2018-06-16T09:44:45.077Z,24.11
2018-06-16T09:45:44.858Z,24.14
2018-06-16T09:46:45.049Z,24.53
2018-06-16T09:47:45.025Z,24.64
2018-06-16T09:48:44.803Z,25.05
2018-06-16T09:49:44.785Z,25.31
2018-06-16T09:50:44.768Z,24.92
2018-06-16T09:51:44.750Z,25.16
2018-06-16T09:52:44.935Z,25.34
2018-06-16T09:53:44.917Z,24.94
2018-06-16T09:54:44.899Z,25.26
2018-06-16T09:55:44.681Z,25.02
2018-06-16T09:56:44.663Z,24.98
2018-06-16T09:57:44.848Z,25.29
2018-06-16T09:58:44.630Z,25.31
2018-06-16T09:59:44.614Z,25.20
2018-06-16T10:00:44.597Z,24.94
2018-06-16T10:02:26.941Z,25.22
2018-06-16T10:03:26.763Z,25.24
2018-06-16T10:04:26.907Z,25.29
2018-06-16T10:05:26.689Z,25.64
2018-06-16T10:06:26.673Z,25.41
2018-06-16T10:07:26.668Z,25.66
2018-06-16T10:08:26.641Z,25.69
2018-06-16T10:09:26.887Z,25.74
2018-06-16T10:10:26.613Z,25.79
2018-06-16T10:11:26.795Z,25.60
2018-06-16T10:12:26.781Z,25.20
2018-06-16T10:13:26.764Z,25.54
2018-06-16T10:14:26.752Z,25.82
2018-06-16T10:15:26.532Z,26.27
2018-06-16T10:16:26.515Z,26.35
2018-06-16T10:17:26.702Z,26.36
2018-06-16T10:18:26.488Z,26.59
2018-06-16T10:19:26.671Z,26.81
2018-06-16T10:20:26.455Z,26.75
2018-06-16T10:21:26.439Z,26.81
2018-06-16T10:22:26.424Z,26.42
2018-06-16T10:23:26.412Z,26.51
2018-06-16T10:24:26.393Z,26.75
2018-06-16T10:25:26.386Z,26.60
2018-06-16T10:26:26.363Z,26.71
2018-06-16T10:27:26.353Z,26.47
2018-06-16T10:28:26.333Z,26.20
2018-06-16T10:29:26.318Z,26.11
2018-06-16T10:30:26.303Z,26.19
2018-06-16T10:31:26.289Z,25.59
2018-06-16T10:32:26.275Z,25.38
2018-06-16T10:33:26.257Z,25.49
2018-06-16T10:34:26.241Z,25.42
2018-06-16T10:35:26.225Z,25.39
2018-06-16T10:36:26.226Z,25.39
2018-06-16T10:37:26.198Z,24.87
2018-06-16T10:38:26.178Z,24.97
2018-06-16T10:39:26.160Z,24.98
2018-06-16T10:40:26.146Z,24.82
2018-06-16T10:41:26.131Z,24.80
2018-06-16T10:42:26.114Z,24.77
2018-06-16T10:43:26.097Z,24.77
2018-06-16T10:44:26.282Z,24.63
2018-06-16T10:45:26.068Z,24.60
2018-06-16T10:46:26.056Z,24.60
2018-06-16T10:47:26.031Z,24.53
2018-06-16T10:48:26.016Z,24.53
2018-06-16T10:49:25.997Z,24.44
2018-06-16T10:50:25.980Z,24.16
2018-06-16T10:51:25.963Z,24.21
2018-06-16T10:52:25.945Z,24.18
2018-06-16T10:53:25.929Z,24.09
2018-06-16T10:55:25.892Z,23.84
2018-06-16T10:56:26.077Z,23.92
2018-06-16T10:57:25.857Z,23.93
2018-06-16T10:58:25.839Z,23.89
2018-06-16T10:59:25.822Z,23.71
2018-06-16T11:00:25.852Z,23.68
2018-06-16T11:01:25.784Z,23.54
2018-06-16T11:02:25.967Z,23.47
2018-06-16T11:03:28.974Z,23.21
2018-06-16T11:04:25.930Z,22.97
2018-06-16T11:05:29.547Z,22.35
2018-06-16T11:06:25.892Z,22.12
2018-06-16T11:07:25.873Z,21.59
2018-06-16T11:08:25.854Z,21.43
2018-06-16T11:09:25.833Z,21.24
2018-06-16T11:10:25.815Z,21.08
2018-06-16T11:11:25.592Z,21.01
2018-06-16T11:12:25.774Z,21.06
2018-06-16T11:13:25.758Z,21.12
2018-06-16T11:14:25.733Z,21.00
2018-06-16T11:15:25.717Z,20.96
2018-06-16T11:16:25.693Z,20.97
2018-06-16T11:17:25.672Z,20.90
2018-06-16T11:18:25.453Z,20.85
2018-06-16T11:19:25.428Z,20.90
2018-06-16T11:20:25.409Z,20.90
2018-06-16T11:21:25.386Z,20.81
2018-06-16T11:22:25.367Z,20.76
2018-06-16T11:23:25.342Z,21.01
2018-06-16T11:24:28.353Z,21.03
2018-06-16T11:25:25.504Z,21.06
2018-06-16T11:26:25.888Z,21.08
2018-06-16T11:27:25.461Z,21.27
2018-06-16T11:28:25.237Z,21.22
2018-06-16T11:29:28.041Z,21.11
2018-06-16T11:30:25.427Z,21.15
2018-06-16T11:31:25.174Z,21.13
2018-06-16T11:32:25.153Z,21.11
2018-06-16T11:33:25.133Z,21.11
2018-06-16T11:34:25.111Z,21.11
2018-06-16T11:35:25.089Z,21.05
2018-06-16T11:36:25.068Z,21.13
2018-06-16T11:37:25.050Z,21.16
2018-06-16T11:38:25.025Z,21.26
2018-06-16T11:39:25.007Z,21.30
2018-06-16T11:40:24.986Z,21.37
2018-06-16T11:41:24.958Z,21.49
2018-06-16T11:42:24.938Z,21.53
2018-06-16T11:43:24.915Z,21.48
2018-06-16T11:44:24.896Z,21.18
2018-06-16T11:45:24.873Z,20.82
2018-06-16T11:46:24.850Z,20.81
2018-06-16T11:47:24.828Z,20.66
2018-06-16T11:48:24.807Z,20.50
2018-06-16T11:49:24.785Z,20.27
2018-06-16T11:50:24.765Z,19.98
2018-06-16T11:51:24.742Z,19.94
2018-06-16T11:52:24.720Z,19.87
2018-06-16T11:53:24.698Z,19.76
2018-06-16T11:54:24.676Z,19.76
2018-06-16T11:55:24.654Z,19.71
2018-06-16T11:56:24.632Z,19.62
2018-06-16T11:57:24.608Z,19.71
2018-06-16T11:58:24.599Z,19.62
2018-06-16T11:59:24.565Z,19.71
2018-06-16T12:00:24.541Z,19.58
2018-06-16T12:01:24.536Z,19.75
2018-06-16T12:02:24.499Z,19.85
2018-06-16T12:03:24.476Z,19.92
2018-06-16T12:04:24.454Z,19.95
2018-06-16T12:05:24.433Z,20.05
2018-06-16T12:06:24.411Z,20.05
2018-06-16T12:07:24.397Z,20.16
2018-06-16T12:08:24.367Z,20.20
2018-06-16T12:09:24.345Z,20.26
2018-06-16T12:10:24.323Z,20.37
2018-06-16T12:11:24.301Z,20.31
2018-06-16T12:12:24.286Z,20.40
2018-06-16T12:13:24.257Z,20.33
2018-06-16T12:14:24.236Z,20.35
2018-06-16T12:15:24.214Z,20.50
2018-06-16T12:16:24.192Z,20.44
2018-06-16T12:17:24.170Z,20.50
2018-06-16T12:18:24.149Z,20.56
2018-06-16T12:19:24.129Z,20.64
2018-06-16T12:20:24.108Z,20.73
2018-06-16T12:21:24.085Z,20.73
2018-06-16T12:22:24.066Z,20.87
2018-06-16T12:23:24.043Z,20.85
2018-06-16T12:24:24.020Z,21.13
2018-06-16T12:25:24.000Z,21.27
2018-06-16T12:26:23.978Z,21.34
2018-06-16T12:27:23.958Z,21.43
2018-06-16T12:28:23.935Z,21.49
2018-06-16T12:29:23.915Z,21.59
2018-06-16T12:30:23.895Z,21.68
2018-06-16T12:31:23.873Z,21.81
2018-06-16T12:32:23.853Z,21.93
2018-06-16T12:33:23.832Z,21.98
2018-06-16T12:34:23.814Z,21.89
2018-06-16T12:35:23.790Z,21.67
2018-06-16T12:36:23.769Z,21.83
2018-06-16T12:37:23.750Z,22.05
2018-06-16T12:38:23.730Z,22.23
2018-06-16T12:39:23.709Z,22.38
2018-06-16T12:40:23.689Z,22.56
2018-06-16T12:41:23.669Z,22.75
2018-06-16T12:42:23.851Z,22.89
2018-06-16T12:43:23.630Z,22.85
2018-06-16T12:44:23.611Z,22.88
2018-06-16T12:45:23.590Z,22.81
2018-06-16T12:46:23.570Z,22.64
2018-06-16T12:47:23.550Z,22.61
2018-06-16T12:48:23.532Z,22.86
2018-06-16T12:49:23.514Z,22.97
2018-06-16T12:50:23.494Z,23.31
2018-06-16T12:51:23.477Z,23.37
2018-06-16T12:52:23.455Z,23.35
2018-06-16T12:53:23.437Z,23.74
2018-06-16T12:54:23.417Z,24.06
2018-06-16T12:55:23.399Z,24.08
2018-06-16T12:56:23.380Z,24.14